Terminal Aerodrome Forecast
Issued by NWS

Home | Current Version | Previous Version | Text Only | Print | Product List | Glossary On
Versions: 1 2 3 4 5 6 7 8 9 10 11 12 13 14 15 16 17
000
FTPA31 PHFO 062325
TAFHJR
TAF
PHJR 062325Z 0700/0724 25010G15KT P6SM SCT025 BKN040
     FM070500 30008KT P6SM VCSH SCT025 BKN035
      TEMPO 0710/0714 -SHRA
     FM071400 01005KT P6SM SCT025 BKN060
     FM072000 05010KT P6SM SCT025 SCT060=

USA.gov is the U.S. government's official web portal to all federal, state and local government web resources and services.